createdAt,value
2022-12-08T00:01:31.304Z,9.45
2022-12-08T00:04:03.053Z,9.25
2022-12-08T00:06:52.792Z,8.65
2022-12-08T00:09:24.123Z,9.60
2022-12-08T00:11:57.901Z,11.90
2022-12-08T00:14:31.278Z,11.20
2022-12-08T00:17:00.595Z,11.00
2022-12-08T00:19:28.712Z,10.23
2022-12-08T00:21:56.775Z,9.95
2022-12-08T00:24:26.609Z,9.40
2022-12-08T00:26:54.162Z,10.30
2022-12-08T00:29:22.395Z,10.65
2022-12-08T00:31:50.940Z,10.70
2022-12-08T00:34:18.358Z,10.95
2022-12-08T00:36:46.729Z,10.90
2022-12-08T00:39:15.597Z,11.38
2022-12-08T00:42:01.691Z,11.32
2022-12-08T00:44:29.093Z,11.48
2022-12-08T00:46:56.396Z,11.50
2022-12-08T00:49:24.107Z,11.43
2022-12-08T00:51:51.742Z,13.07
2022-12-08T00:54:20.633Z,12.20
2022-12-08T00:56:48.309Z,14.20
2022-12-08T00:59:16.023Z,14.90
2022-12-08T01:01:45.565Z,13.13
2022-12-08T01:04:16.174Z,9.57
2022-12-08T01:06:44.494Z,9.02
2022-12-08T01:09:14.427Z,9.13
2022-12-08T01:11:42.336Z,8.70
2022-12-08T01:14:10.135Z,10.83
2022-12-08T01:16:38.572Z,10.45
2022-12-08T01:19:06.013Z,10.45
2022-12-08T01:21:33.881Z,11.57
2022-12-08T01:24:01.541Z,10.32
2022-12-08T01:26:29.339Z,11.10
2022-12-08T01:28:57.027Z,10.90
2022-12-08T01:31:24.776Z,11.10
2022-12-08T01:33:52.336Z,10.90
2022-12-08T01:36:24.313Z,11.15
2022-12-08T01:38:52.959Z,10.13
2022-12-08T01:41:23.599Z,10.05
2022-12-08T01:44:11.132Z,10.75
2022-12-08T01:46:43.200Z,13.88
2022-12-08T01:49:13.660Z,12.95
2022-12-08T01:52:01.150Z,12.33
2022-12-08T01:54:36.653Z,10.85
2022-12-08T01:57:23.867Z,11.77
2022-12-08T02:00:14.696Z,11.40
2022-12-08T02:03:07.486Z,11.35
2022-12-08T02:05:39.213Z,13.90
2022-12-08T02:08:09.793Z,12.38
2022-12-08T02:10:41.807Z,12.45
2022-12-08T02:13:15.672Z,12.75
2022-12-08T02:16:03.363Z,12.32
2022-12-08T02:19:30.366Z,12.27
2022-12-08T02:22:09.799Z,12.10
2022-12-08T02:24:46.017Z,12.65
2022-12-08T02:27:40.920Z,15.98
2022-12-08T02:30:33.857Z,14.02
2022-12-08T02:33:04.051Z,14.17
2022-12-08T02:36:16.805Z,13.50
2022-12-08T02:39:02.334Z,13.00
2022-12-08T02:41:54.469Z,12.70
2022-12-08T02:44:35.969Z,13.32
2022-12-08T02:47:14.601Z,13.23
2022-12-08T02:49:42.708Z,12.77
2022-12-08T02:52:13.074Z,12.70
2022-12-08T02:54:50.233Z,14.27
2022-12-08T02:57:55.566Z,14.68
2022-12-08T03:00:25.849Z,13.87
2022-12-08T03:03:14.085Z,13.55
2022-12-08T03:06:06.232Z,13.55
2022-12-08T03:08:42.535Z,12.68
2022-12-08T03:11:15.725Z,13.40
2022-12-08T03:13:46.894Z,14.57
2022-12-08T03:16:21.157Z,12.80
2022-12-08T03:19:11.678Z,11.27
2022-12-08T03:21:41.853Z,11.55
2022-12-08T03:24:11.589Z,10.70
2022-12-08T03:26:47.938Z,12.20
2022-12-08T03:29:15.509Z,10.10
2022-12-08T03:31:55.641Z,10.50
2022-12-08T03:34:26.476Z,10.52
2022-12-08T03:36:54.680Z,11.07
2022-12-08T03:39:22.057Z,11.20
2022-12-08T03:41:49.410Z,10.82
2022-12-08T03:44:16.842Z,11.27
2022-12-08T03:46:44.264Z,11.27
2022-12-08T03:49:11.700Z,11.73
2022-12-08T03:51:39.001Z,10.83
2022-12-08T03:54:06.400Z,11.25
2022-12-08T03:56:38.337Z,11.40
2022-12-08T03:59:08.883Z,11.88
2022-12-08T04:01:36.422Z,10.98
2022-12-08T04:04:03.947Z,11.13
2022-12-08T04:06:31.324Z,12.02
2022-12-08T04:08:58.671Z,10.88
2022-12-08T04:11:25.950Z,10.52
2022-12-08T04:13:53.275Z,11.20
2022-12-08T04:16:25.443Z,9.27
2022-12-08T04:18:52.987Z,9.30
2022-12-08T04:21:20.829Z,10.18
2022-12-08T04:23:48.458Z,9.82
2022-12-08T04:26:17.936Z,9.43
2022-12-08T04:28:45.277Z,9.67
2022-12-08T04:31:12.678Z,9.50
2022-12-08T04:33:40.816Z,9.50
2022-12-08T04:36:09.305Z,9.00
2022-12-08T04:38:36.692Z,8.85
2022-12-08T04:41:04.127Z,9.00
2022-12-08T04:43:31.393Z,8.63
2022-12-08T04:45:58.821Z,9.18
2022-12-08T04:48:26.132Z,8.60
2022-12-08T04:50:53.688Z,8.55
2022-12-08T04:53:21.608Z,8.90
2022-12-08T04:55:49.961Z,9.73
2022-12-08T04:58:19.286Z,8.90
2022-12-08T05:00:47.118Z,9.45
2022-12-08T05:03:16.124Z,8.77
2022-12-08T05:05:44.312Z,9.07
2022-12-08T05:08:13.359Z,9.50
2022-12-08T05:10:40.948Z,9.52
2022-12-08T05:13:08.274Z,9.77
2022-12-08T05:15:36.608Z,10.00
2022-12-08T05:18:06.583Z,8.73
2022-12-08T05:20:34.480Z,9.65
2022-12-08T05:23:02.007Z,10.00
2022-12-08T05:25:29.654Z,10.35
2022-12-08T05:28:17.543Z,8.60
2022-12-08T05:30:44.580Z,9.20
2022-12-08T05:33:11.958Z,8.57
2022-12-08T05:35:39.296Z,9.05
2022-12-08T05:38:07.179Z,8.98
2022-12-08T05:40:34.548Z,8.77
2022-12-08T05:43:01.797Z,9.47
2022-12-08T05:45:29.207Z,8.88
2022-12-08T05:47:57.547Z,9.25
2022-12-08T05:50:25.348Z,9.40
2022-12-08T05:52:55.642Z,9.65
2022-12-08T05:55:23.155Z,8.53
2022-12-08T05:57:50.586Z,9.30
2022-12-08T06:00:18.696Z,9.02
2022-12-08T06:02:46.201Z,7.90
2022-12-08T06:05:13.609Z,9.50
2022-12-08T06:07:41.021Z,9.17
2022-12-08T06:10:08.904Z,8.43
2022-12-08T06:12:36.269Z,8.57
2022-12-08T06:15:03.664Z,9.38
2022-12-08T06:17:30.992Z,8.50
2022-12-08T06:19:58.284Z,8.70
2022-12-08T06:22:27.696Z,8.63
2022-12-08T06:24:55.038Z,8.82
2022-12-08T06:27:22.342Z,8.65
2022-12-08T06:29:49.708Z,9.02
2022-12-08T06:32:19.924Z,9.00
2022-12-08T06:34:50.301Z,8.75
2022-12-08T06:37:17.994Z,8.90
2022-12-08T06:39:45.558Z,8.88
2022-12-08T06:42:31.326Z,8.27
2022-12-08T06:44:59.862Z,8.63
2022-12-08T06:47:27.137Z,8.55
2022-12-08T06:49:54.476Z,8.80
2022-12-08T06:52:21.818Z,8.88
2022-12-08T06:54:49.661Z,8.55
2022-12-08T06:57:17.103Z,8.53
2022-12-08T06:59:45.417Z,8.10
2022-12-08T07:02:16.125Z,7.88
2022-12-08T07:04:44.321Z,9.52
2022-12-08T07:07:11.896Z,9.95
2022-12-08T07:09:39.985Z,8.83
2022-12-08T07:12:07.640Z,9.45
2022-12-08T07:14:35.040Z,9.32
2022-12-08T07:17:02.680Z,10.43
2022-12-08T07:19:30.040Z,15.23
2022-12-08T07:21:57.365Z,25.97
2022-12-08T07:24:24.784Z,30.30
2022-12-08T07:26:52.282Z,22.60
2022-12-08T07:29:24.706Z,11.88
2022-12-08T07:31:53.601Z,10.30
2022-12-08T07:34:21.163Z,9.27
2022-12-08T07:36:49.189Z,11.15
2022-12-08T07:39:16.507Z,9.10
2022-12-08T07:41:43.769Z,9.57
2022-12-08T07:44:11.753Z,10.05
2022-12-08T07:46:39.131Z,9.40
2022-12-08T07:49:06.539Z,9.05
2022-12-08T07:51:33.894Z,9.75
2022-12-08T07:54:01.860Z,9.70
2022-12-08T07:56:29.696Z,9.27
2022-12-08T07:58:57.027Z,9.67
2022-12-08T08:01:30.407Z,9.40
2022-12-08T08:04:02.096Z,9.55
2022-12-08T08:06:29.413Z,9.48
2022-12-08T08:08:57.469Z,10.07
2022-12-08T08:11:25.130Z,9.63
2022-12-08T08:13:53.136Z,10.27
2022-12-08T08:16:21.624Z,10.50
2022-12-08T08:18:51.198Z,10.43
2022-12-08T08:24:07.998Z,10.53
2022-12-08T08:26:35.376Z,12.68
2022-12-08T08:29:02.716Z,12.55
2022-12-08T08:31:30.159Z,11.10
2022-12-08T08:33:58.269Z,10.30
2022-12-08T08:36:25.655Z,9.83
2022-12-08T08:38:52.964Z,9.20
2022-12-08T08:41:20.828Z,8.68
2022-12-08T08:43:48.266Z,8.13
2022-12-08T08:46:15.951Z,8.10
2022-12-08T08:48:43.318Z,8.47
2022-12-08T08:51:12.809Z,8.23
2022-12-08T08:53:40.370Z,9.10
2022-12-08T08:56:15.844Z,7.90
2022-12-08T08:58:43.352Z,8.48
2022-12-08T09:01:16.573Z,8.27
2022-12-08T09:03:44.746Z,7.75
2022-12-08T09:06:13.050Z,8.18
2022-12-08T09:08:41.666Z,7.50
2022-12-08T09:11:09.736Z,8.38
2022-12-08T09:13:37.240Z,8.27
2022-12-08T09:16:06.554Z,7.53
2022-12-08T09:18:36.223Z,7.28
2022-12-08T09:21:05.984Z,7.63
2022-12-08T09:23:35.657Z,8.43
2022-12-08T09:26:05.453Z,10.27
2022-12-08T09:28:33.505Z,10.98
2022-12-08T09:31:01.762Z,11.35
2022-12-08T09:33:29.192Z,12.32
2022-12-08T09:35:56.865Z,13.35
2022-12-08T09:38:26.169Z,13.53
2022-12-08T09:40:55.104Z,14.75
2022-12-08T09:43:57.560Z,16.52
2022-12-08T09:46:29.162Z,15.52
2022-12-08T09:48:59.973Z,14.45
2022-12-08T09:51:33.636Z,14.90
2022-12-08T09:54:10.519Z,14.27
2022-12-08T09:56:39.179Z,14.15
2022-12-08T09:59:09.503Z,10.55
2022-12-08T10:01:42.316Z,11.02
2022-12-08T10:04:37.777Z,8.70
2022-12-08T10:07:17.503Z,7.90
2022-12-08T10:10:04.854Z,7.63
2022-12-08T10:12:47.968Z,7.30
2022-12-08T10:15:36.578Z,7.22
2022-12-08T10:18:18.086Z,7.27
2022-12-08T10:20:49.340Z,11.18
2022-12-08T10:23:33.721Z,12.02
2022-12-08T10:26:13.339Z,10.30
2022-12-08T10:28:44.701Z,12.50
2022-12-08T10:31:26.152Z,21.97
2022-12-08T10:34:23.346Z,22.10
2022-12-08T10:36:59.309Z,27.10
2022-12-08T10:39:44.103Z,25.08
2022-12-08T10:42:14.838Z,22.20
2022-12-08T10:45:04.574Z,21.83
2022-12-08T10:47:38.131Z,22.63
2022-12-08T10:50:10.005Z,21.13
2022-12-08T10:52:41.479Z,21.30
2022-12-08T10:55:15.965Z,23.13
2022-12-08T10:57:43.419Z,21.67
2022-12-08T11:00:20.504Z,19.77
2022-12-08T11:03:05.953Z,20.95
2022-12-08T11:05:35.898Z,23.60
2022-12-08T11:08:05.695Z,25.00
2022-12-08T11:10:43.066Z,21.83
2022-12-08T11:13:20.170Z,22.38
2022-12-08T11:15:47.682Z,12.63
2022-12-08T11:18:29.637Z,12.35
2022-12-08T11:21:07.952Z,13.82
2022-12-08T11:23:37.138Z,12.03
2022-12-08T11:26:12.070Z,11.07
2022-12-08T11:28:40.119Z,11.43
2022-12-08T11:31:40.789Z,11.05
2022-12-08T11:34:18.732Z,10.00
2022-12-08T11:36:47.841Z,9.97
2022-12-08T11:39:15.645Z,10.75
2022-12-08T11:41:46.257Z,9.32
2022-12-08T11:44:38.246Z,10.38
2022-12-08T11:47:08.401Z,7.88
2022-12-08T11:49:42.480Z,7.93
2022-12-08T11:52:23.294Z,8.07
2022-12-08T11:55:18.448Z,8.90
2022-12-08T11:57:46.257Z,8.48
2022-12-08T12:00:17.488Z,9.45
2022-12-08T12:02:50.926Z,9.80
2022-12-08T12:06:13.240Z,10.25
2022-12-08T12:09:09.220Z,9.43
2022-12-08T12:12:16.895Z,9.27
2022-12-08T12:15:03.675Z,7.90
2022-12-08T12:17:49.538Z,8.03
2022-12-08T12:20:51.181Z,7.03
2022-12-08T12:23:25.154Z,8.52
2022-12-08T12:33:18.432Z,7.73
2022-12-08T12:35:48.505Z,8.15
2022-12-08T12:38:43.125Z,7.70
2022-12-08T12:41:13.422Z,8.18
2022-12-08T12:43:41.014Z,10.05
2022-12-08T12:46:23.792Z,14.03
2022-12-08T12:48:52.324Z,10.00
2022-12-08T12:51:48.001Z,10.00
2022-12-08T12:54:22.968Z,9.38
2022-12-08T12:57:05.036Z,8.95
2022-12-08T12:59:56.175Z,8.17
2022-12-08T13:02:26.454Z,10.80
2022-12-08T13:05:09.233Z,10.82
2022-12-08T13:07:44.884Z,10.40
2022-12-08T13:10:23.329Z,15.95
2022-12-08T13:13:05.288Z,14.10
2022-12-08T13:15:51.036Z,11.27
2022-12-08T13:18:38.409Z,12.23
2022-12-08T13:21:18.703Z,12.07
2022-12-08T13:24:10.963Z,12.82
2022-12-08T13:26:49.465Z,22.83
2022-12-08T13:29:23.798Z,28.98
2022-12-08T13:31:53.734Z,32.10
2022-12-08T13:34:23.804Z,32.00
2022-12-08T13:37:09.958Z,36.35
2022-12-08T13:39:40.597Z,35.20
2022-12-08T13:42:36.658Z,29.67
2022-12-08T13:45:39.789Z,31.42
2022-12-08T13:48:25.639Z,29.20
2022-12-08T13:52:59.901Z,25.73
2022-12-08T13:59:34.543Z,29.40
2022-12-08T14:02:18.542Z,28.85
2022-12-08T14:07:40.569Z,28.37
2022-12-08T14:10:14.242Z,31.80
2022-12-08T14:12:46.316Z,31.40
2022-12-08T14:15:16.095Z,31.02
2022-12-08T14:17:54.577Z,32.03
2022-12-08T14:20:46.490Z,34.23
2022-12-08T14:23:23.091Z,32.20
2022-12-08T14:25:50.937Z,32.70
2022-12-08T14:28:18.851Z,32.95
2022-12-08T14:30:49.936Z,33.10
2022-12-08T14:33:17.969Z,32.27
2022-12-08T14:35:55.045Z,32.42
2022-12-08T14:38:25.603Z,33.20
2022-12-08T14:41:08.526Z,33.72
2022-12-08T14:43:36.181Z,31.35
2022-12-08T14:46:21.086Z,30.93
2022-12-08T14:48:48.481Z,31.25
2022-12-08T14:51:24.512Z,31.52
2022-12-08T14:53:56.939Z,35.97
2022-12-08T14:56:26.298Z,38.28
2022-12-08T14:59:14.656Z,38.53
2022-12-08T15:01:43.262Z,26.50
2022-12-08T15:04:13.662Z,21.95
2022-12-08T15:06:55.972Z,17.98
2022-12-08T15:09:45.363Z,15.35
2022-12-08T15:12:13.396Z,16.80
2022-12-08T15:14:56.855Z,15.82
2022-12-08T15:17:46.318Z,16.20
2022-12-08T15:20:40.959Z,15.18
2022-12-08T15:23:33.041Z,15.38
2022-12-08T15:26:01.061Z,14.03
2022-12-08T15:28:30.623Z,14.13
2022-12-08T15:30:59.206Z,14.57
2022-12-08T15:33:27.320Z,15.15
2022-12-08T15:35:54.639Z,17.23
2022-12-08T15:38:29.301Z,18.67
2022-12-08T15:40:58.989Z,17.27
2022-12-08T15:43:28.382Z,15.77
2022-12-08T15:45:59.805Z,17.73
2022-12-08T15:48:31.167Z,16.60
2022-12-08T15:51:00.530Z,15.23
2022-12-08T15:53:28.084Z,15.18
2022-12-08T15:56:26.288Z,12.88
2022-12-08T15:58:59.226Z,12.75
2022-12-08T16:01:27.347Z,13.52
2022-12-08T16:04:59.763Z,17.37
2022-12-08T16:09:38.844Z,16.52
2022-12-08T16:12:57.196Z,16.25
2022-12-08T16:18:14.573Z,23.07
2022-12-08T16:21:07.389Z,26.38
2022-12-08T16:23:46.309Z,29.00
2022-12-08T16:27:01.057Z,29.23
2022-12-08T16:29:10.111Z,29.55
2022-12-08T16:31:37.689Z,28.23
2022-12-08T16:34:05.189Z,29.27
2022-12-08T16:36:32.913Z,29.27
2022-12-08T16:39:00.324Z,29.00
2022-12-08T16:41:46.669Z,29.17
2022-12-08T16:44:14.585Z,27.97
2022-12-08T16:46:42.365Z,26.58
2022-12-08T16:49:10.233Z,24.85
2022-12-08T16:51:37.868Z,25.15
2022-12-08T16:54:05.321Z,24.27
2022-12-08T16:56:33.748Z,23.67
2022-12-08T16:59:02.400Z,22.80
2022-12-08T17:01:30.277Z,25.77
2022-12-08T17:06:45.282Z,25.45
2022-12-08T17:09:12.777Z,29.13
2022-12-08T17:11:43.417Z,27.40
2022-12-08T17:14:13.334Z,26.75
2022-12-08T17:16:40.877Z,28.42
2022-12-08T17:19:08.849Z,29.17
2022-12-08T17:21:36.341Z,29.03
2022-12-08T17:24:04.917Z,33.00
2022-12-08T17:26:32.705Z,30.67
2022-12-08T17:29:02.823Z,30.38
2022-12-08T17:31:32.445Z,32.95
2022-12-08T17:34:02.634Z,30.30
2022-12-08T17:36:30.091Z,31.33
2022-12-08T17:38:59.853Z,32.60
2022-12-08T17:41:30.488Z,32.50
2022-12-08T17:43:58.036Z,32.13
2022-12-08T17:46:25.401Z,29.53
2022-12-08T17:48:53.154Z,30.40
2022-12-08T17:51:20.605Z,29.17
2022-12-08T17:53:48.116Z,25.50
2022-12-08T17:56:20.407Z,27.48
2022-12-08T17:58:52.852Z,30.07
2022-12-08T18:01:23.486Z,26.85
2022-12-08T18:03:51.290Z,25.75
2022-12-08T18:06:18.627Z,27.73
2022-12-08T18:08:46.009Z,27.02
2022-12-08T18:11:16.072Z,28.87
2022-12-08T18:13:43.592Z,31.20
2022-12-08T18:16:11.301Z,31.70
2022-12-08T18:18:38.612Z,30.90
2022-12-08T18:21:06.216Z,28.95
2022-12-08T18:23:33.741Z,31.37
2022-12-08T18:26:01.119Z,30.70
2022-12-08T18:28:28.521Z,31.90
2022-12-08T18:30:55.914Z,32.25
2022-12-08T18:33:23.584Z,33.67
2022-12-08T18:35:51.520Z,41.13
2022-12-08T18:38:19.273Z,36.08
2022-12-08T18:40:46.596Z,35.50
2022-12-08T18:43:14.284Z,30.90
2022-12-08T18:45:41.719Z,31.38
2022-12-08T18:48:09.029Z,29.67
2022-12-08T18:50:36.338Z,30.67
2022-12-08T18:53:03.981Z,30.77
2022-12-08T18:55:31.270Z,30.88
2022-12-08T18:57:58.548Z,28.42
2022-12-08T19:00:25.908Z,26.83
2022-12-08T19:02:53.286Z,26.48
2022-12-08T19:05:20.774Z,26.30
2022-12-08T19:07:48.496Z,24.30
2022-12-08T19:10:15.894Z,21.23
2022-12-08T19:12:43.281Z,20.97
2022-12-08T19:15:11.121Z,21.08
2022-12-08T19:17:38.749Z,21.08
2022-12-08T19:20:07.340Z,17.98
2022-12-08T19:22:34.773Z,19.35
2022-12-08T19:25:02.489Z,15.23
2022-12-08T19:27:29.971Z,18.25
2022-12-08T19:29:57.389Z,17.90
2022-12-08T19:32:24.963Z,21.73
2022-12-08T19:34:53.222Z,23.38
2022-12-08T19:37:21.093Z,21.97
2022-12-08T19:40:08.943Z,23.70
2022-12-08T19:42:54.593Z,27.00
2022-12-08T19:45:23.067Z,27.75
2022-12-08T19:47:50.553Z,27.98
2022-12-08T19:50:36.676Z,26.90
2022-12-08T19:53:13.599Z,22.77
2022-12-08T19:55:43.587Z,21.80
2022-12-08T19:58:11.411Z,22.67
2022-12-08T20:00:40.670Z,20.83
2022-12-08T20:03:08.625Z,20.03
2022-12-08T20:05:36.924Z,18.05
2022-12-08T20:08:04.825Z,18.40
2022-12-08T20:10:36.175Z,17.65
2022-12-08T20:13:22.349Z,16.38
2022-12-08T20:15:50.216Z,15.20
2022-12-08T20:18:17.857Z,17.75
2022-12-08T20:20:46.489Z,18.60
2022-12-08T20:23:15.263Z,16.20
2022-12-08T20:25:44.771Z,17.17
2022-12-08T20:28:12.595Z,15.87
2022-12-08T20:30:41.640Z,15.85
2022-12-08T20:33:13.274Z,15.82
2022-12-08T20:35:44.258Z,15.70
2022-12-08T20:38:12.996Z,16.55
2022-12-08T20:40:44.465Z,16.27
2022-12-08T20:43:11.729Z,19.08
2022-12-08T20:45:39.018Z,18.08
2022-12-08T20:48:06.541Z,19.10
2022-12-08T20:50:33.891Z,17.75
2022-12-08T20:53:01.298Z,16.43
2022-12-08T20:55:29.057Z,17.15
2022-12-08T20:57:56.518Z,17.48
2022-12-08T21:00:26.366Z,16.20
2022-12-08T21:02:57.539Z,17.15
2022-12-08T21:05:25.465Z,15.23
2022-12-08T21:07:53.304Z,15.93
2022-12-08T21:10:20.768Z,16.38
2022-12-08T21:12:48.492Z,15.98
2022-12-08T21:15:15.913Z,16.33
2022-12-08T21:17:43.520Z,15.77
2022-12-08T21:20:11.880Z,16.00
2022-12-08T21:22:40.511Z,16.80
2022-12-08T21:25:08.857Z,16.83
2022-12-08T21:27:38.109Z,16.63
2022-12-08T21:30:07.145Z,16.07
2022-12-08T21:32:34.923Z,16.20
2022-12-08T21:35:02.390Z,19.85
2022-12-08T21:37:30.199Z,30.10
2022-12-08T21:39:57.850Z,27.05
2022-12-08T21:42:43.890Z,23.83
2022-12-08T21:45:13.909Z,19.40
2022-12-08T21:47:41.448Z,18.15
2022-12-08T21:50:10.326Z,17.58
2022-12-08T21:52:43.649Z,16.88
2022-12-08T21:55:12.743Z,15.13
2022-12-08T21:57:40.619Z,15.38
2022-12-08T22:00:11.363Z,14.30
2022-12-08T22:02:39.507Z,13.45
2022-12-08T22:05:09.563Z,12.65
2022-12-08T22:07:38.945Z,13.37
2022-12-08T22:10:07.886Z,13.98
2022-12-08T22:12:37.177Z,13.52
2022-12-08T22:15:06.862Z,15.38
2022-12-08T22:17:42.465Z,13.63
2022-12-08T22:20:15.409Z,14.80
2022-12-08T22:22:43.145Z,12.50
2022-12-08T22:25:12.165Z,12.60
2022-12-08T22:27:41.013Z,12.38
2022-12-08T22:30:09.613Z,11.70
2022-12-08T22:32:37.730Z,12.10
2022-12-08T22:35:05.849Z,14.15
2022-12-08T22:37:33.330Z,16.70
2022-12-08T22:40:00.599Z,18.42
2022-12-08T22:42:28.343Z,16.23
2022-12-08T22:44:55.633Z,15.40
2022-12-08T22:47:23.152Z,15.32
2022-12-08T22:49:50.682Z,16.63
2022-12-08T22:52:18.177Z,16.67
2022-12-08T22:54:45.654Z,16.05
2022-12-08T22:57:13.519Z,15.80
2022-12-08T22:59:41.117Z,17.63
2022-12-08T23:02:09.085Z,20.17
2022-12-08T23:04:41.316Z,23.13
2022-12-08T23:07:09.007Z,23.42
2022-12-08T23:09:36.344Z,24.37
2022-12-08T23:12:05.407Z,23.35
2022-12-08T23:14:32.856Z,26.23
2022-12-08T23:17:02.014Z,22.23
2022-12-08T23:19:29.614Z,25.05
2022-12-08T23:21:56.961Z,20.43
2022-12-08T23:24:24.537Z,20.33
2022-12-08T23:26:51.922Z,18.75
2022-12-08T23:29:19.662Z,18.67
2022-12-08T23:31:47.081Z,19.90
2022-12-08T23:34:14.808Z,17.50
2022-12-08T23:36:42.439Z,14.80
2022-12-08T23:39:11.489Z,15.48
2022-12-08T23:41:38.794Z,13.93
2022-12-08T23:44:07.169Z,10.32
2022-12-08T23:46:34.593Z,9.47
2022-12-08T23:49:02.374Z,8.20
2022-12-08T23:51:30.155Z,7.72
2022-12-08T23:53:57.438Z,7.43
2022-12-08T23:56:30.045Z,7.07
2022-12-08T23:58:57.674Z,6.70
